Tarawa, North Carolina
Current Conditions -  °F | °C
As of 6:56 PM on Thursday 27 Nov 2014 (Local Time) from KNCA Reporting Station
Clear Clear  
Wind Chill: 39°   Ceiling: Unl
Heat Index: 44°   Visibility: 10mi
Dew Point: 38°   Wind: 9mph
Humidity: 79%   Direction: 300°WNW
Pressure: 30.15"   Gusts: NA
Location:  34.7353°N, 77.3964°W
Report Text: KNCA 272356Z AUTO 30008KT 10SM CLR 07/03 A3015 RMK AO2 SLP213 T00670033 10128 20061 51038
Loading
Personal Weather Stations






























Interactive Weather Map New forecast layout! Learn more

10-Day Weather Forecast

Advertisements
Track Severe Weather on mobile